createdAt,value
2019-05-23T00:01:41.682Z,101399.40
2019-05-23T00:03:39.035Z,101393.78
2019-05-23T00:05:38.112Z,101390.77
2019-05-23T00:07:35.036Z,101396.67
2019-05-23T00:09:27.608Z,101400.25
2019-05-23T00:11:25.908Z,101392.77
2019-05-23T00:13:13.637Z,101392.70
2019-05-23T00:15:00.753Z,101388.84
2019-05-23T00:16:39.431Z,101386.03
2019-05-23T00:18:21.147Z,101385.28
2019-05-23T00:19:54.788Z,101390.43
2019-05-23T00:21:33.522Z,101395.41
2019-05-23T00:23:19.679Z,101394.61
2019-05-23T00:24:57.269Z,101391.38
2019-05-23T00:26:33.055Z,101395.30
2019-05-23T00:28:16.759Z,101387.97
2019-05-23T00:29:52.064Z,101392.23
2019-05-23T00:31:32.265Z,101389.81
2019-05-23T00:33:08.626Z,101389.51
2019-05-23T00:34:45.438Z,101401.34
2019-05-23T00:36:22.010Z,101393.22
2019-05-23T00:38:04.655Z,101387.98
2019-05-23T00:39:40.181Z,101393.00
2019-05-23T00:41:16.197Z,101393.72
2019-05-23T00:43:00.197Z,101388.94
2019-05-23T00:44:36.553Z,101382.93
2019-05-23T00:46:12.153Z,101386.56
2019-05-23T00:47:48.470Z,101383.29
2019-05-23T00:49:24.699Z,101387.13
2019-05-23T00:51:00.202Z,101385.66
2019-05-23T00:52:38.771Z,101387.20
2019-05-23T00:54:14.710Z,101388.67
2019-05-23T00:55:52.273Z,101391.85
2019-05-23T00:57:28.896Z,101391.80
2019-05-23T00:59:06.945Z,101390.21
2019-05-23T01:00:43.943Z,101386.69
2019-05-23T01:02:19.514Z,101390.45
2019-05-23T01:03:55.290Z,101391.80
2019-05-23T01:05:31.079Z,101389.41
2019-05-23T01:07:07.464Z,101386.91
2019-05-23T01:08:42.952Z,101391.70
2019-05-23T01:10:21.212Z,101386.06
2019-05-23T01:11:55.926Z,101389.34
2019-05-23T01:13:31.449Z,101391.09
2019-05-23T01:15:07.312Z,101387.05
2019-05-23T01:16:49.436Z,101388.64
2019-05-23T01:18:26.694Z,101386.73
2019-05-23T01:20:08.288Z,101387.84
2019-05-23T01:21:56.118Z,101389.56
2019-05-23T01:23:39.419Z,101388.59
2019-05-23T01:25:21.535Z,101392.76
2019-05-23T01:26:57.069Z,101391.44
2019-05-23T01:28:39.653Z,101385.83
2019-05-23T01:30:18.725Z,101392.91
2019-05-23T01:31:59.673Z,101386.06
2019-05-23T01:33:34.931Z,101378.58
2019-05-23T01:35:11.056Z,101387.28
2019-05-23T01:36:46.455Z,101382.80
2019-05-23T01:38:25.671Z,101382.71
2019-05-23T01:40:02.641Z,101384.22
2019-05-23T01:41:39.625Z,101380.78
2019-05-23T01:43:22.409Z,101386.56
2019-05-23T01:44:58.644Z,101382.83
2019-05-23T01:46:34.262Z,101395.45
2019-05-23T01:48:11.898Z,101387.69
2019-05-23T01:49:47.608Z,101382.28
2019-05-23T01:51:22.439Z,101387.55
2019-05-23T01:52:58.331Z,101391.61
2019-05-23T01:54:33.452Z,101389.94
2019-05-23T01:56:09.665Z,101396.61
2019-05-23T01:57:44.856Z,101392.51
2019-05-23T01:59:20.544Z,101393.12
2019-05-23T02:01:01.924Z,101395.16
2019-05-23T02:02:37.722Z,101392.71
2019-05-23T02:04:14.050Z,101394.75
2019-05-23T02:05:48.989Z,101397.35
2019-05-23T02:07:24.882Z,101396.77
2019-05-23T02:09:01.255Z,101397.26
2019-05-23T02:10:36.923Z,101389.52
2019-05-23T02:12:12.318Z,101398.10
2019-05-23T02:13:57.994Z,101398.10
2019-05-23T02:15:33.592Z,101396.42
2019-05-23T02:17:10.956Z,101399.91
2019-05-23T02:18:53.538Z,101405.20
2019-05-23T02:20:32.315Z,101408.40
2019-05-23T02:22:07.223Z,101401.38
2019-05-23T02:23:42.746Z,101399.47
2019-05-23T02:25:19.460Z,101403.74
2019-05-23T02:26:55.278Z,101404.30
2019-05-23T02:28:33.561Z,101405.53
2019-05-23T02:30:30.103Z,101404.55
2019-05-23T02:31:47.356Z,101403.13
2019-05-23T02:33:30.241Z,101398.55
2019-05-23T02:35:06.348Z,101393.99
2019-05-23T02:36:41.128Z,101402.87
2019-05-23T02:38:41.483Z,101394.06
2019-05-23T02:40:26.449Z,101393.73
2019-05-23T02:42:14.743Z,101395.45
2019-05-23T02:43:58.771Z,101392.25
2019-05-23T02:45:39.489Z,101389.17
2019-05-23T02:47:36.370Z,101389.37
2019-05-23T02:49:13.337Z,101393.32
2019-05-23T02:50:53.382Z,101387.72
2019-05-23T02:52:44.104Z,101390.76
2019-05-23T02:54:20.571Z,101383.64
2019-05-23T02:55:57.998Z,101386.78
2019-05-23T02:57:34.345Z,101388.36
2019-05-23T02:59:17.831Z,101385.19
2019-05-23T03:01:18.856Z,101386.42
2019-05-23T03:03:01.350Z,101381.83
2019-05-23T03:04:38.087Z,101383.31
2019-05-23T03:06:17.557Z,101382.80
2019-05-23T03:07:53.786Z,101381.92
2019-05-23T03:09:37.922Z,101383.83
2019-05-23T03:11:39.067Z,101380.59
2019-05-23T03:13:19.095Z,101380.89
2019-05-23T03:14:53.277Z,101376.91
2019-05-23T03:16:31.312Z,101376.29
2019-05-23T03:18:07.590Z,101377.59
2019-05-23T03:19:48.119Z,101373.31
2019-05-23T03:21:27.247Z,101372.98
2019-05-23T03:23:13.163Z,101372.08
2019-05-23T03:24:48.899Z,101375.02
2019-05-23T03:27:16.868Z,101377.30
2019-05-23T03:28:52.894Z,101371.56
2019-05-23T03:30:37.280Z,101372.70
2019-05-23T03:32:39.554Z,101370.84
2019-05-23T03:34:15.722Z,101367.70
2019-05-23T03:35:52.444Z,101364.85
2019-05-23T03:37:27.728Z,101360.38
2019-05-23T03:39:04.562Z,101362.87
2019-05-23T03:40:48.504Z,101356.23
2019-05-23T03:42:32.429Z,101351.81
2019-05-23T03:44:09.567Z,101357.50
2019-05-23T03:45:50.357Z,101360.59
2019-05-23T03:47:34.425Z,101358.89
2019-05-23T03:49:12.106Z,101361.55
2019-05-23T03:50:46.858Z,101366.48
2019-05-23T03:52:26.732Z,101365.34
2019-05-23T03:54:04.241Z,101365.97
2019-05-23T03:55:43.259Z,101365.45
2019-05-23T03:57:19.320Z,101365.68
2019-05-23T03:58:56.726Z,101360.37
2019-05-23T04:00:37.338Z,101362.80
2019-05-23T04:02:14.319Z,101361.34
2019-05-23T04:03:50.484Z,101364.75
2019-05-23T04:05:25.717Z,101370.30
2019-05-23T04:07:01.363Z,101371.37
2019-05-23T04:08:39.357Z,101366.39
2019-05-23T04:10:14.273Z,101364.30
2019-05-23T04:11:49.948Z,101364.73
2019-05-23T04:13:25.161Z,101365.70
2019-05-23T04:15:00.478Z,101365.03
2019-05-23T04:16:38.590Z,101362.73
2019-05-23T04:18:14.609Z,101371.79
2019-05-23T04:19:49.678Z,101365.21
2019-05-23T04:21:25.573Z,101370.62
2019-05-23T04:23:02.176Z,101371.02
2019-05-23T04:24:43.601Z,101368.25
2019-05-23T04:26:19.019Z,101369.55
2019-05-23T04:27:54.438Z,101374.23
2019-05-23T04:29:31.864Z,101375.78
2019-05-23T04:31:07.069Z,101382.13
2019-05-23T04:32:42.416Z,101377.44
2019-05-23T04:34:17.087Z,101383.04
2019-05-23T04:35:55.305Z,101377.36
2019-05-23T04:37:30.699Z,101380.00
2019-05-23T04:39:07.207Z,101374.95
2019-05-23T04:40:41.831Z,101370.56
2019-05-23T04:42:17.160Z,101374.20
2019-05-23T04:43:51.806Z,101370.09
2019-05-23T04:45:30.670Z,101373.02
2019-05-23T04:47:05.801Z,101370.95
2019-05-23T04:48:41.056Z,101376.77
2019-05-23T04:50:17.041Z,101380.62
2019-05-23T04:51:53.240Z,101378.98
2019-05-23T04:53:30.611Z,101378.98
2019-05-23T04:55:07.069Z,101379.75
2019-05-23T04:56:44.275Z,101389.58
2019-05-23T04:58:19.789Z,101389.58
2019-05-23T04:59:54.934Z,101396.25
2019-05-23T05:01:30.652Z,101390.29
2019-05-23T05:03:06.415Z,101390.29
2019-05-23T05:04:41.921Z,101393.45
2019-05-23T05:06:16.573Z,101393.30
2019-05-23T05:07:57.468Z,101399.66
2019-05-23T05:09:42.458Z,101402.23
2019-05-23T05:11:17.188Z,101398.80
2019-05-23T05:12:52.710Z,101402.86
2019-05-23T05:14:27.588Z,101403.79
2019-05-23T05:16:03.894Z,101407.41
2019-05-23T05:17:39.585Z,101405.49
2019-05-23T05:19:15.100Z,101410.14
2019-05-23T05:20:52.765Z,101415.06
2019-05-23T05:22:28.087Z,101419.66
2019-05-23T05:24:02.878Z,101414.25
2019-05-23T05:25:38.500Z,101415.34
2019-05-23T05:27:14.985Z,101412.06
2019-05-23T05:28:50.300Z,101412.66
2019-05-23T05:30:25.434Z,101415.38
2019-05-23T05:32:03.962Z,101414.95
2019-05-23T05:33:38.583Z,101413.77
2019-05-23T05:35:14.000Z,101420.52
2019-05-23T05:36:57.261Z,101412.78
2019-05-23T05:38:34.025Z,101411.50
2019-05-23T05:40:09.700Z,101416.12
2019-05-23T05:41:44.965Z,101417.80
2019-05-23T05:43:20.277Z,101422.94
2019-05-23T05:44:55.692Z,101414.90
2019-05-23T05:46:30.479Z,101420.91
2019-05-23T05:48:12.856Z,101429.62
2019-05-23T05:49:56.698Z,101422.12
2019-05-23T05:51:32.403Z,101426.30
2019-05-23T05:53:09.313Z,101429.37
2019-05-23T05:54:44.837Z,101429.16
2019-05-23T05:56:19.547Z,101440.67
2019-05-23T05:58:03.256Z,101437.00
2019-05-23T05:59:38.879Z,101438.72
2019-05-23T06:01:31.215Z,101439.73
2019-05-23T06:03:03.646Z,101438.83
2019-05-23T06:04:27.937Z,101438.14
2019-05-23T06:06:15.059Z,101434.89
2019-05-23T06:07:50.752Z,101440.56
2019-05-23T06:09:28.466Z,101437.07
2019-05-23T06:11:03.731Z,101443.91
2019-05-23T06:12:38.492Z,101443.61
2019-05-23T06:14:14.174Z,101443.47
2019-05-23T06:15:49.593Z,101443.31
2019-05-23T06:17:26.580Z,101440.33
2019-05-23T06:19:01.486Z,101449.44
2019-05-23T06:20:40.651Z,101444.72
2019-05-23T06:22:14.346Z,101444.61
2019-05-23T06:23:55.870Z,101441.48
2019-05-23T06:25:31.168Z,101445.58
2019-05-23T06:27:08.181Z,101449.88
2019-05-23T06:29:00.070Z,101445.31
2019-05-23T06:30:38.546Z,101440.30
2019-05-23T06:32:16.750Z,101442.98
2019-05-23T06:33:52.253Z,101439.81
2019-05-23T06:35:34.958Z,101438.43
2019-05-23T06:37:11.115Z,101436.77
2019-05-23T06:38:45.891Z,101441.43
2019-05-23T06:40:21.248Z,101440.41
2019-05-23T06:41:57.670Z,101438.80
2019-05-23T06:43:37.004Z,101443.16
2019-05-23T06:45:13.526Z,101438.23
2019-05-23T06:46:49.037Z,101449.41
2019-05-23T06:48:24.351Z,101443.08
2019-05-23T06:50:00.695Z,101437.77
2019-05-23T06:51:36.675Z,101435.42
2019-05-23T06:53:16.009Z,101434.59
2019-05-23T06:54:50.827Z,101433.01
2019-05-23T06:56:26.907Z,101443.78
2019-05-23T06:58:01.914Z,101439.23
2019-05-23T06:59:37.218Z,101437.27
2019-05-23T07:01:11.882Z,101430.83
2019-05-23T07:02:50.352Z,101439.36
2019-05-23T07:04:25.369Z,101439.52
2019-05-23T07:06:00.608Z,101441.59
2019-05-23T07:07:36.216Z,101438.14
2019-05-23T07:09:15.532Z,101438.64
2019-05-23T07:10:50.166Z,101444.94
2019-05-23T07:12:25.837Z,101443.06
2019-05-23T07:14:00.824Z,101434.23
2019-05-23T07:15:36.445Z,101436.95
2019-05-23T07:17:11.705Z,101434.25
2019-05-23T07:18:47.094Z,101433.28
2019-05-23T07:20:22.892Z,101436.28
2019-05-23T07:21:58.212Z,101430.81
2019-05-23T07:23:38.352Z,101436.84
2019-05-23T07:25:19.324Z,101435.83
2019-05-23T07:26:53.980Z,101437.59
2019-05-23T07:28:31.899Z,101438.13
2019-05-23T07:30:10.764Z,101440.78
2019-05-23T07:31:46.141Z,101434.37
2019-05-23T07:33:20.880Z,101441.05
2019-05-23T07:34:56.141Z,101436.19
2019-05-23T07:36:31.727Z,101436.16
2019-05-23T07:38:07.158Z,101434.63
2019-05-23T07:39:42.168Z,101436.70
2019-05-23T07:41:18.087Z,101441.53
2019-05-23T07:42:54.806Z,101436.08
2019-05-23T07:44:31.116Z,101439.09
2019-05-23T07:46:07.006Z,101439.69
2019-05-23T07:47:42.836Z,101437.59
2019-05-23T07:49:17.547Z,101434.55
2019-05-23T07:50:52.832Z,101437.34
2019-05-23T07:52:27.539Z,101436.84
2019-05-23T07:54:21.361Z,101437.53
2019-05-23T07:55:58.082Z,101438.47
2019-05-23T07:57:33.311Z,101434.49
2019-05-23T07:59:08.040Z,101441.08
2019-05-23T08:00:49.289Z,101434.60
2019-05-23T08:02:33.007Z,101443.69
2019-05-23T08:04:20.578Z,101438.96
2019-05-23T08:05:45.686Z,101435.68
2019-05-23T08:07:22.010Z,101436.69
2019-05-23T08:08:58.564Z,101431.41
2019-05-23T08:10:34.670Z,101428.88
2019-05-23T08:12:09.481Z,101431.75
2019-05-23T08:13:45.054Z,101432.35
2019-05-23T08:15:20.611Z,101428.42
2019-05-23T08:16:59.194Z,101428.20
2019-05-23T08:18:33.848Z,101422.59
2019-05-23T08:20:10.077Z,101422.52
2019-05-23T08:21:44.737Z,101420.95
2019-05-23T08:23:20.225Z,101422.92
2019-05-23T08:24:55.161Z,101429.07
2019-05-23T08:26:31.479Z,101428.67
2019-05-23T08:28:06.283Z,101427.11
2019-05-23T08:29:41.968Z,101429.91
2019-05-23T08:31:16.731Z,101422.91
2019-05-23T08:32:51.983Z,101426.25
2019-05-23T08:34:40.770Z,101418.24
2019-05-23T08:36:07.958Z,101423.41
2019-05-23T08:37:42.687Z,101427.28
2019-05-23T08:39:19.108Z,101422.56
2019-05-23T08:40:54.497Z,101418.81
2019-05-23T08:42:30.795Z,101419.27
2019-05-23T08:44:06.214Z,101423.97
2019-05-23T08:45:44.119Z,101427.97
2019-05-23T08:47:18.897Z,101427.17
2019-05-23T08:48:54.284Z,101415.81
2019-05-23T08:50:29.340Z,101418.17
2019-05-23T08:52:04.922Z,101417.61
2019-05-23T08:53:43.281Z,101416.17
2019-05-23T08:55:21.938Z,101415.42
2019-05-23T08:56:58.275Z,101418.53
2019-05-23T08:58:33.756Z,101410.78
2019-05-23T09:00:10.185Z,101417.86
2019-05-23T09:01:45.893Z,101414.88
2019-05-23T09:03:21.442Z,101417.33
2019-05-23T09:05:05.639Z,101415.02
2019-05-23T09:06:37.155Z,101411.08
2019-05-23T09:08:16.424Z,101410.53
2019-05-23T09:09:49.414Z,101409.80
2019-05-23T09:11:32.976Z,101410.41
2019-05-23T09:13:09.155Z,101402.84
2019-05-23T09:14:44.091Z,101403.52
2019-05-23T09:16:19.392Z,101406.12
2019-05-23T09:17:54.494Z,101404.41
2019-05-23T09:19:29.885Z,101400.31
2019-05-23T09:21:05.042Z,101397.08
2019-05-23T09:22:44.771Z,101393.91
2019-05-23T09:24:19.915Z,101399.80
2019-05-23T09:25:55.277Z,101396.17
2019-05-23T09:27:30.101Z,101396.13
2019-05-23T09:29:06.861Z,101389.08
2019-05-23T09:30:41.791Z,101392.29
2019-05-23T09:32:17.083Z,101393.63
2019-05-23T09:33:51.781Z,101388.42
2019-05-23T09:35:27.709Z,101388.03
2019-05-23T09:37:02.593Z,101388.17
2019-05-23T09:38:37.817Z,101388.58
2019-05-23T09:40:12.641Z,101388.95
2019-05-23T09:41:48.278Z,101386.19
2019-05-23T09:43:23.201Z,101389.89
2019-05-23T09:44:58.451Z,101386.29
2019-05-23T09:46:33.188Z,101386.17
2019-05-23T09:48:08.718Z,101386.35
2019-05-23T09:49:53.470Z,101383.23
2019-05-23T09:51:21.067Z,101385.47
2019-05-23T09:52:55.816Z,101384.29
2019-05-23T09:54:31.650Z,101372.86
2019-05-23T09:56:06.318Z,101375.41
2019-05-23T09:57:41.518Z,101377.30
2019-05-23T09:59:16.250Z,101374.31
2019-05-23T10:00:51.655Z,101366.20
2019-05-23T10:02:29.460Z,101368.70
2019-05-23T10:04:05.190Z,101362.48
2019-05-23T10:05:43.604Z,101371.67
2019-05-23T10:07:20.757Z,101370.05
2019-05-23T10:08:56.418Z,101375.22
2019-05-23T10:10:31.690Z,101377.31
2019-05-23T10:12:07.106Z,101366.64
2019-05-23T10:13:41.864Z,101369.60
2019-05-23T10:15:28.746Z,101373.70
2019-05-23T10:17:04.120Z,101368.72
2019-05-23T10:18:39.411Z,101370.18
2019-05-23T10:20:17.770Z,101360.98
2019-05-23T10:21:52.490Z,101369.91
2019-05-23T10:23:29.353Z,101371.06
2019-05-23T10:25:04.387Z,101369.47
2019-05-23T10:26:39.638Z,101359.97
2019-05-23T10:28:14.460Z,101366.43
2019-05-23T10:29:49.731Z,101361.65
2019-05-23T10:31:25.178Z,101352.91
2019-05-23T10:33:00.419Z,101354.61
2019-05-23T10:34:35.325Z,101352.02
2019-05-23T10:36:10.728Z,101353.03
2019-05-23T10:37:45.396Z,101353.27
2019-05-23T10:39:21.287Z,101355.41
2019-05-23T10:40:55.987Z,101348.25
2019-05-23T10:42:31.665Z,101348.98
2019-05-23T10:44:06.616Z,101345.56
2019-05-23T10:45:47.557Z,101341.32
2019-05-23T10:47:22.867Z,101344.56
2019-05-23T10:49:00.674Z,101341.38
2019-05-23T10:50:44.828Z,101338.44
2019-05-23T10:52:14.163Z,101333.74
2019-05-23T10:53:52.162Z,101332.95
2019-05-23T10:55:27.287Z,101332.02
2019-05-23T10:57:02.607Z,101328.52
2019-05-23T10:58:38.830Z,101328.80
2019-05-23T11:00:15.472Z,101330.30
2019-05-23T11:01:57.271Z,101328.92
2019-05-23T11:03:32.629Z,101334.69
2019-05-23T11:05:12.931Z,101330.52
2019-05-23T11:06:45.278Z,101328.92
2019-05-23T11:08:20.296Z,101327.89
2019-05-23T11:09:56.650Z,101321.97
2019-05-23T11:11:31.348Z,101323.67
2019-05-23T11:13:06.760Z,101322.67
2019-05-23T11:14:41.418Z,101319.69
2019-05-23T11:16:16.919Z,101318.90
2019-05-23T11:17:55.626Z,101319.48
2019-05-23T11:19:31.317Z,101323.16
2019-05-23T11:21:06.049Z,101325.30
2019-05-23T11:22:46.819Z,101315.88
2019-05-23T11:24:21.759Z,101315.00
2019-05-23T11:26:01.459Z,101314.30
2019-05-23T11:27:35.785Z,101315.20
2019-05-23T11:29:13.844Z,101314.59
2019-05-23T11:30:53.943Z,101310.58
2019-05-23T11:32:29.247Z,101308.92
2019-05-23T11:34:04.465Z,101300.92
2019-05-23T11:35:43.853Z,101300.41
2019-05-23T11:37:18.900Z,101298.88
2019-05-23T11:38:57.200Z,101292.51
2019-05-23T11:40:33.790Z,101293.05
2019-05-23T11:42:10.354Z,101300.16
2019-05-23T11:43:45.739Z,101296.08
2019-05-23T11:45:21.223Z,101290.67
2019-05-23T11:46:56.029Z,101286.30
2019-05-23T11:48:31.531Z,101290.69
2019-05-23T11:50:06.520Z,101289.27
2019-05-23T11:51:41.780Z,101285.45
2019-05-23T11:53:16.602Z,101290.89
2019-05-23T11:55:01.272Z,101282.83
2019-05-23T11:56:40.633Z,101287.77
2019-05-23T11:58:15.279Z,101281.95
2019-05-23T11:59:50.788Z,101275.89
2019-05-23T12:01:43.794Z,101276.37
2019-05-23T12:03:19.049Z,101274.39
2019-05-23T12:04:54.404Z,101267.73
2019-05-23T12:06:53.489Z,101268.13
2019-05-23T12:08:12.009Z,101268.42
2019-05-23T12:09:47.390Z,101267.42
2019-05-23T12:11:22.518Z,101269.08
2019-05-23T12:12:59.444Z,101265.37
2019-05-23T12:14:43.106Z,101268.26
2019-05-23T12:16:19.026Z,101260.45
2019-05-23T12:17:54.808Z,101264.75
2019-05-23T12:19:30.233Z,101263.72
2019-05-23T12:21:05.236Z,101260.05
2019-05-23T12:22:46.703Z,101256.30
2019-05-23T12:24:22.457Z,101261.89
2019-05-23T12:25:57.093Z,101249.93
2019-05-23T12:27:37.856Z,101251.48
2019-05-23T12:29:13.410Z,101254.80
2019-05-23T12:30:54.293Z,101252.98
2019-05-23T12:32:29.531Z,101250.95
2019-05-23T12:34:04.402Z,101249.53
2019-05-23T12:35:39.735Z,101252.46
2019-05-23T12:37:19.007Z,101243.53
2019-05-23T12:38:51.645Z,101247.27
2019-05-23T12:40:26.720Z,101248.23
2019-05-23T12:42:01.944Z,101248.45
2019-05-23T12:43:36.586Z,101250.81
2019-05-23T12:45:17.342Z,101239.27
2019-05-23T12:46:52.114Z,101235.70
2019-05-23T12:48:40.490Z,101238.61
2019-05-23T12:50:17.851Z,101239.61
2019-05-23T12:52:01.923Z,101229.69
2019-05-23T12:53:37.234Z,101236.63
2019-05-23T12:55:12.090Z,101228.34
2019-05-23T12:56:49.479Z,101229.38
2019-05-23T12:58:25.705Z,101225.56
2019-05-23T13:00:12.500Z,101226.26
2019-05-23T13:01:48.918Z,101225.56
2019-05-23T13:03:25.562Z,101220.65
2019-05-23T13:05:01.318Z,101217.55
2019-05-23T13:06:36.609Z,101217.05
2019-05-23T13:08:12.138Z,101218.62
2019-05-23T13:09:47.074Z,101220.11
2019-05-23T13:11:23.302Z,101219.25
2019-05-23T13:12:58.020Z,101212.30
2019-05-23T13:14:33.634Z,101213.55
2019-05-23T13:16:08.282Z,101211.48
2019-05-23T13:17:43.847Z,101202.20
2019-05-23T13:19:18.848Z,101205.00
2019-05-23T13:20:59.345Z,101206.39
2019-05-23T13:22:31.933Z,101204.41
2019-05-23T13:24:07.245Z,101205.12
2019-05-23T13:25:41.946Z,101202.31
2019-05-23T13:27:17.358Z,101201.58
2019-05-23T13:28:56.416Z,101198.29
2019-05-23T13:30:31.745Z,101199.81
2019-05-23T13:32:07.080Z,101202.34
2019-05-23T13:33:48.348Z,101204.05
2019-05-23T13:35:24.355Z,101193.67
2019-05-23T13:36:59.008Z,101193.02
2019-05-23T13:38:34.362Z,101199.63
2019-05-23T13:40:10.276Z,101197.69
2019-05-23T13:41:50.831Z,101187.54
2019-05-23T13:43:25.628Z,101186.80
2019-05-23T13:45:01.952Z,101190.14
2019-05-23T13:46:36.896Z,101184.30
2019-05-23T13:48:13.810Z,101185.77
2019-05-23T13:49:56.137Z,101182.91
2019-05-23T13:51:31.383Z,101181.01
2019-05-23T13:53:06.453Z,101178.13
2019-05-23T13:54:43.092Z,101180.64
2019-05-23T13:56:18.398Z,101174.31
2019-05-23T13:58:01.173Z,101176.23
2019-05-23T13:59:36.959Z,101177.09
2019-05-23T14:01:12.294Z,101174.31
2019-05-23T14:02:49.159Z,101174.69
2019-05-23T14:04:23.847Z,101177.04
2019-05-23T14:06:05.277Z,101172.00
2019-05-23T14:07:40.521Z,101176.28
2019-05-23T14:09:16.472Z,101164.58
2019-05-23T14:10:57.102Z,101169.19
2019-05-23T14:12:32.400Z,101171.32
2019-05-23T14:14:07.656Z,101171.77
2019-05-23T14:15:47.074Z,101170.78
2019-05-23T14:17:39.260Z,101165.81
2019-05-23T14:19:14.585Z,101170.91
2019-05-23T14:20:54.503Z,101169.30
2019-05-23T14:22:30.547Z,101168.61
2019-05-23T14:24:05.299Z,101169.80
2019-05-23T14:25:46.560Z,101170.56
2019-05-23T14:27:52.759Z,101174.00
2019-05-23T14:29:29.412Z,101166.27
2019-05-23T14:31:20.571Z,101163.15
2019-05-23T14:33:06.485Z,101163.06
2019-05-23T14:34:44.558Z,101163.59
2019-05-23T14:36:32.155Z,101161.53
2019-05-23T14:38:08.080Z,101153.74
2019-05-23T14:39:54.799Z,101157.89
2019-05-23T14:41:44.616Z,101159.72
2019-05-23T14:43:20.941Z,101150.98
2019-05-23T14:44:56.114Z,101152.70
2019-05-23T14:46:36.780Z,101159.13
2019-05-23T14:48:29.664Z,101148.80
2019-05-23T14:50:14.514Z,101151.70
2019-05-23T14:51:57.552Z,101148.59
2019-05-23T14:53:34.485Z,101144.05
2019-05-23T14:55:19.083Z,101138.34
2019-05-23T14:56:54.307Z,101146.14
2019-05-23T14:58:29.531Z,101133.67
2019-05-23T15:00:07.244Z,101139.80
2019-05-23T15:01:42.521Z,101139.78
2019-05-23T15:03:19.395Z,101138.47
2019-05-23T15:04:54.110Z,101135.33
2019-05-23T15:06:29.599Z,101137.11
2019-05-23T15:08:07.532Z,101135.23
2019-05-23T15:09:42.779Z,101136.39
2019-05-23T15:11:26.332Z,101137.67
2019-05-23T15:13:01.989Z,101140.95
2019-05-23T15:14:36.629Z,101135.77
2019-05-23T15:16:12.039Z,101130.98
2019-05-23T15:17:46.709Z,101129.66
2019-05-23T15:21:15.007Z,101127.66
2019-05-23T15:22:51.521Z,101134.28
2019-05-23T15:24:26.617Z,101126.22
2019-05-23T15:26:21.094Z,101132.84
2019-05-23T15:27:40.104Z,101133.61
2019-05-23T15:29:15.402Z,101125.64
2019-05-23T15:30:50.047Z,101126.39
2019-05-23T15:32:25.375Z,101127.23
2019-05-23T15:34:00.337Z,101123.73
2019-05-23T15:35:36.273Z,101126.56
2019-05-23T15:37:10.990Z,101125.03
2019-05-23T15:38:46.349Z,101114.48
2019-05-23T15:40:21.663Z,101111.86
2019-05-23T15:41:58.785Z,101118.15
2019-05-23T15:43:33.466Z,101117.75
2019-05-23T15:45:11.161Z,101112.35
2019-05-23T15:46:45.875Z,101113.38
2019-05-23T15:48:21.185Z,101115.19
2019-05-23T15:49:57.515Z,101113.36
2019-05-23T15:51:38.593Z,101112.14
2019-05-23T15:53:32.623Z,101113.09
2019-05-23T15:55:19.717Z,101110.45
2019-05-23T15:56:59.891Z,101111.97
2019-05-23T15:58:55.521Z,101104.63
2019-05-23T16:00:52.312Z,101108.77
2019-05-23T16:02:33.133Z,101110.12
2019-05-23T16:04:12.949Z,101107.42
2019-05-23T16:05:51.300Z,101103.52
2019-05-23T16:07:27.579Z,101104.39
2019-05-23T16:09:02.467Z,101102.45
2019-05-23T16:10:39.316Z,101096.83
2019-05-23T16:12:15.313Z,101096.27
2019-05-23T16:13:57.943Z,101094.14
2019-05-23T16:15:33.302Z,101093.75
2019-05-23T16:17:09.381Z,101093.34
2019-05-23T16:18:45.102Z,101086.56
2019-05-23T16:20:20.120Z,101091.41
2019-05-23T16:21:55.883Z,101093.55
2019-05-23T16:23:30.992Z,101092.20
2019-05-23T16:25:06.961Z,101097.75
2019-05-23T16:26:41.797Z,101097.85
2019-05-23T16:28:17.266Z,101091.48
2019-05-23T16:29:52.508Z,101084.03
2019-05-23T16:31:27.754Z,101080.27
2019-05-23T16:33:05.414Z,101086.25
2019-05-23T16:34:40.725Z,101081.32
2019-05-23T16:36:15.733Z,101085.86
2019-05-23T16:38:04.044Z,101083.14
2019-05-23T16:39:47.685Z,101082.84
2019-05-23T16:41:15.717Z,101084.39
2019-05-23T16:42:50.984Z,101079.17
2019-05-23T16:44:25.770Z,101076.27
2019-05-23T16:46:01.001Z,101082.70
2019-05-23T16:47:35.635Z,101079.20
2019-05-23T16:49:10.893Z,101076.17
2019-05-23T16:50:45.543Z,101073.84
2019-05-23T16:52:26.655Z,101079.12
2019-05-23T16:54:02.375Z,101076.51
2019-05-23T16:55:55.330Z,101073.59
2019-05-23T16:57:42.748Z,101077.24
2019-05-23T16:59:25.895Z,101070.68
2019-05-23T17:01:23.303Z,101073.75
2019-05-23T17:02:59.454Z,101070.02
2019-05-23T17:04:47.443Z,101073.27
2019-05-23T17:06:31.156Z,101065.66
2019-05-23T17:08:27.707Z,101072.19
2019-05-23T17:10:17.246Z,101069.23
2019-05-23T17:12:10.866Z,101068.44
2019-05-23T17:13:54.294Z,101062.05
2019-05-23T17:15:59.735Z,101064.38
2019-05-23T17:18:01.626Z,101066.73
2019-05-23T17:19:53.055Z,101060.09
2019-05-23T17:22:01.523Z,101057.81
2019-05-23T17:23:48.142Z,101061.19
2019-05-23T17:25:39.912Z,101053.16
2019-05-23T17:27:52.013Z,101054.81
2019-05-23T17:29:32.689Z,101057.75
2019-05-23T17:31:10.960Z,101060.11
2019-05-23T17:32:45.686Z,101060.63
2019-05-23T17:34:20.921Z,101059.45
2019-05-23T17:36:01.591Z,101057.30
2019-05-23T17:37:36.822Z,101054.70
2019-05-23T17:39:12.771Z,101058.52
2019-05-23T17:40:49.045Z,101053.45
2019-05-23T17:42:24.457Z,101062.73
2019-05-23T17:43:59.677Z,101056.77
2019-05-23T17:45:34.935Z,101059.55
2019-05-23T17:47:12.198Z,101056.15
2019-05-23T17:48:47.603Z,101059.43
2019-05-23T17:50:23.180Z,101056.63
2019-05-23T17:51:57.910Z,101055.56
2019-05-23T17:53:41.389Z,101057.57
2019-05-23T17:55:16.688Z,101059.02
2019-05-23T17:56:51.411Z,101060.07
2019-05-23T17:58:29.918Z,101052.03
2019-05-23T18:00:03.418Z,101054.17
2019-05-23T18:01:42.262Z,101051.09
2019-05-23T18:03:17.484Z,101051.49
2019-05-23T18:04:57.859Z,101051.49
2019-05-23T18:06:33.323Z,101056.66
2019-05-23T18:08:10.221Z,101055.92
2019-05-23T18:09:46.463Z,101054.17
2019-05-23T18:11:21.336Z,101055.52
2019-05-23T18:12:57.592Z,101060.63
2019-05-23T18:14:32.509Z,101053.87
2019-05-23T18:16:15.082Z,101052.45
2019-05-23T18:17:50.301Z,101050.30
2019-05-23T18:19:25.520Z,101058.33
2019-05-23T18:21:01.273Z,101054.27
2019-05-23T18:22:36.762Z,101053.81
2019-05-23T18:24:12.307Z,101047.77
2019-05-23T18:25:47.249Z,101051.58
2019-05-23T18:27:23.031Z,101049.59
2019-05-23T18:28:57.927Z,101053.74
2019-05-23T18:30:52.459Z,101051.90
2019-05-23T18:32:37.546Z,101046.44
2019-05-23T18:34:13.319Z,101039.59
2019-05-23T18:35:49.048Z,101041.19
2019-05-23T18:37:25.127Z,101042.30
2019-05-23T18:38:59.943Z,101042.91
2019-05-23T18:40:35.520Z,101043.40
2019-05-23T18:42:10.255Z,101040.15